Time;durP1;ratioP1;P1;durP2;ratioP2;P2;SDS_P1;SDS_P2;PMS_P1;PMS_P2;Temp;Humidity;BMP_temperature;BMP_pressure;BME280_temperature;BME280_humidity;BME280_pressure;Samples;Min_cycle;Max_cycle;Signal;HPM_P1;HPM_P2
2022/05/17 00:01:03;;;;;;;12.05;7.53;;;17.40;86.30;;;;;;5073484;28;20028;-14
2022/05/17 00:03:29;;;;;;;12.73;8.60;;;17.30;86.10;;;;;;5073449;28;20029;-14
2022/05/17 00:05:55;;;;;;;12.18;8.57;;;17.30;86.10;;;;;;5073560;28;20399;-14
2022/05/17 00:08:22;;;;;;;11.07;7.40;;;17.30;86.40;;;;;;5073454;28;20028;-14
2022/05/17 00:10:48;;;;;;;10.73;8.10;;;17.30;86.20;;;;;;5073270;28;20032;-14
2022/05/17 00:13:15;;;;;;;12.52;8.85;;;17.30;86.20;;;;;;5073330;28;20074;-13
2022/05/17 00:15:45;;;;;;;14.15;8.93;;;17.30;86.20;;;;;;5073493;28;20151;-15
2022/05/17 00:18:12;;;;;;;11.18;7.75;;;17.30;86.10;;;;;;5073333;28;20483;-14
2022/05/17 00:20:41;;;;;;;12.25;9.00;;;17.20;86.20;;;;;;5072992;28;20027;-14
2022/05/17 00:23:08;;;;;;;12.27;9.15;;;17.20;86.30;;;;;;5073157;28;20024;-15
2022/05/17 00:25:35;;;;;;;13.00;9.68;;;17.20;86.40;;;;;;5073483;28;20024;-14
2022/05/17 00:28:02;;;;;;;13.93;9.48;;;17.20;86.30;;;;;;5073145;28;20016;-15
2022/05/17 00:30:28;;;;;;;17.23;11.60;;;17.20;86.30;;;;;;5072442;28;20048;-14
2022/05/17 00:32:54;;;;;;;17.95;12.25;;;17.20;86.30;;;;;;5073551;28;20031;-15
2022/05/17 00:35:20;;;;;;;13.40;9.05;;;17.20;86.30;;;;;;5091200;28;20473;-13
2022/05/17 00:37:45;;;;;;;12.73;8.68;;;17.20;86.50;;;;;;5075140;28;20020;-15
2022/05/17 00:40:13;;;;;;;13.90;9.57;;;17.20;86.40;;;;;;5093315;28;20024;-14
2022/05/17 00:42:39;;;;;;;18.27;12.40;;;17.30;86.40;;;;;;5093462;28;20016;-13
2022/05/17 00:45:07;;;;;;;14.63;9.88;;;17.30;86.30;;;;;;5093133;28;20034;-14
2022/05/17 00:47:41;;;;;;;14.35;9.43;;;17.30;86.50;;;;;;5093410;28;20115;-14
2022/05/17 00:50:28;;;;;;;14.93;9.60;;;17.30;86.60;;;;;;5093367;28;20048;-15
2022/05/17 00:53:17;;;;;;;18.80;13.38;;;17.30;86.50;;;;;;5093622;28;20049;-15
2022/05/17 00:55:52;;;;;;;14.88;10.10;;;17.40;86.40;;;;;;5092529;28;20071;-14
2022/05/17 00:58:29;;;;;;;15.27;9.10;;;17.30;86.40;;;;;;5092681;28;20549;-13
2022/05/17 01:01:10;;;;;;;13.60;9.07;;;17.30;86.50;;;;;;5093682;28;20070;-14
2022/05/17 01:04:08;;;;;;;11.73;8.75;;;17.30;86.40;;;;;;5093259;28;20059;-12
2022/05/17 01:06:43;;;;;;;11.50;8.25;;;17.30;86.40;;;;;;5092154;28;20035;-15
2022/05/17 01:09:10;;;;;;;12.77;9.27;;;17.30;86.30;;;;;;5093461;28;20111;-13
2022/05/17 01:11:36;;;;;;;12.23;8.63;;;17.30;86.40;;;;;;5092892;28;20028;-14
2022/05/17 01:16:46;;;;;;;12.75;8.00;;;17.20;86.30;;;;;;5093243;28;20169;-13
2022/05/17 01:19:14;;;;;;;10.88;7.80;;;17.20;86.30;;;;;;5092688;28;20115;-15
2022/05/17 01:21:41;;;;;;;12.98;8.70;;;17.10;86.40;;;;;;5092768;28;20031;-14
2022/05/17 01:24:08;;;;;;;16.25;9.68;;;17.00;86.30;;;;;;5092771;28;20472;-16
2022/05/17 01:26:38;;;;;;;13.98;9.38;;;17.00;86.40;;;;;;5092595;28;20479;-16
2022/05/17 01:29:05;;;;;;;17.33;12.35;;;16.90;86.40;;;;;;5092848;28;20095;-14
2022/05/17 01:31:35;;;;;;;13.35;9.10;;;16.90;86.40;;;;;;5092659;28;20025;-14
2022/05/17 01:34:01;;;;;;;13.73;9.38;;;16.90;86.50;;;;;;5092550;28;20087;-14
2022/05/17 01:36:27;;;;;;;13.82;9.25;;;16.90;86.60;;;;;;5092429;28;20554;-13
2022/05/17 01:38:53;;;;;;;14.43;9.60;;;16.90;86.60;;;;;;5092667;28;20115;-14
2022/05/17 01:41:20;;;;;;;17.27;12.05;;;16.80;86.60;;;;;;5094312;28;20028;-14
2022/05/17 01:43:47;;;;;;;13.50;9.88;;;16.90;86.70;;;;;;5096700;28;20036;-14
2022/05/17 01:46:13;;;;;;;13.70;9.45;;;16.90;86.80;;;;;;5096341;28;20016;-13
2022/05/17 01:48:40;;;;;;;20.35;12.80;;;16.90;86.80;;;;;;5096546;28;20058;-14
2022/05/17 01:51:07;;;;;;;16.75;12.48;;;16.80;86.70;;;;;;5096096;28;20035;-14
2022/05/17 01:53:34;;;;;;;17.33;12.48;;;16.80;86.80;;;;;;5096471;28;20028;-15
2022/05/17 01:56:05;;;;;;;18.00;11.70;;;16.70;86.90;;;;;;5096413;28;20039;-15
2022/05/17 01:58:32;;;;;;;13.75;9.43;;;16.70;87.30;;;;;;5095897;28;20032;-15
2022/05/17 02:00:59;;;;;;;17.27;10.52;;;16.70;87.10;;;;;;5096247;28;20069;-16
2022/05/17 02:03:25;;;;;;;14.13;9.02;;;16.60;87.10;;;;;;5077759;28;20494;-14
2022/05/17 02:05:51;;;;;;;13.45;8.50;;;16.70;87.20;;;;;;5095775;28;20027;-14
2022/05/17 02:08:18;;;;;;;11.95;8.20;;;16.60;87.10;;;;;;5095629;28;20027;-15
2022/05/17 02:10:45;;;;;;;12.57;8.68;;;16.60;87.00;;;;;;5078134;28;20036;-15
2022/05/17 02:13:11;;;;;;;13.15;8.05;;;16.50;86.90;;;;;;5095756;28;20110;-15
2022/05/17 02:15:38;;;;;;;12.35;7.57;;;16.50;87.00;;;;;;5095782;28;20165;-15
2022/05/17 02:18:06;;;;;;;9.13;6.32;;;16.50;87.00;;;;;;5095873;28;20042;-12
2022/05/17 02:20:34;;;;;;;12.10;8.50;;;16.50;86.90;;;;;;5095466;28;20592;-14
2022/05/17 02:23:00;;;;;;;13.13;7.78;;;16.50;86.80;;;;;;5095648;28;20035;-14
2022/05/17 02:25:26;;;;;;;14.40;8.95;;;16.50;86.90;;;;;;5095880;28;20028;-15
2022/05/17 02:27:53;;;;;;;10.80;7.82;;;16.40;86.90;;;;;;5095479;28;20024;-14
2022/05/17 02:30:19;;;;;;;11.00;7.30;;;16.40;86.90;;;;;;5077372;28;20035;-15
2022/05/17 02:32:45;;;;;;;13.68;7.72;;;16.40;86.90;;;;;;5095873;28;20027;-14
2022/05/17 02:35:13;;;;;;;8.20;6.18;;;16.40;86.80;;;;;;5095391;28;20490;-16
2022/05/17 02:37:39;;;;;;;9.00;6.78;;;16.30;86.80;;;;;;5095610;28;20040;-14
2022/05/17 02:40:08;;;;;;;9.60;6.20;;;16.30;86.80;;;;;;5095566;28;20104;-13
2022/05/17 02:42:34;;;;;;;10.45;7.28;;;16.20;86.80;;;;;;5095397;28;20039;-15
2022/05/17 02:45:01;;;;;;;14.45;9.00;;;16.20;86.80;;;;;;5095134;28;20444;-16
2022/05/17 02:47:27;;;;;;;13.10;8.63;;;16.20;86.80;;;;;;5095321;28;20043;-15
2022/05/17 02:49:53;;;;;;;15.70;9.88;;;16.20;86.80;;;;;;5094945;28;20055;-13
2022/05/17 02:52:19;;;;;;;11.93;8.13;;;16.10;86.90;;;;;;5094210;28;20031;-15
2022/05/17 02:54:45;;;;;;;14.63;9.68;;;16.10;86.90;;;;;;5095467;28;20024;-14
2022/05/17 02:57:11;;;;;;;10.63;7.78;;;16.00;87.10;;;;;;5095297;28;20020;-14
2022/05/17 02:59:37;;;;;;;13.05;8.60;;;16.00;87.20;;;;;;5094850;28;20111;-15
2022/05/17 03:02:03;;;;;;;10.48;7.20;;;16.10;87.20;;;;;;5094976;28;20111;-16
2022/05/17 03:04:30;;;;;;;9.40;5.97;;;16.00;87.10;;;;;;5094345;28;20024;-13
2022/05/17 03:06:57;;;;;;;8.02;5.60;;;16.00;86.90;;;;;;5094730;28;20447;-16
2022/05/17 03:09:23;;;;;;;9.30;6.40;;;16.00;86.90;;;;;;5076987;28;20492;-16
2022/05/17 03:11:49;;;;;;;10.48;7.10;;;16.00;86.90;;;;;;5094569;28;20021;-14
2022/05/17 03:14:21;;;;;;;9.85;7.57;;;15.90;86.90;;;;;;5094503;28;20020;-14
2022/05/17 03:16:48;;;;;;;10.93;6.60;;;15.90;86.90;;;;;;5094695;28;20032;-14
2022/05/17 03:19:15;;;;;;;11.43;7.38;;;15.90;86.90;;;;;;5094385;28;20028;-14
2022/05/17 03:21:41;;;;;;;9.82;6.80;;;15.80;86.90;;;;;;5076309;28;20494;-14
2022/05/17 03:24:08;;;;;;;10.05;7.20;;;15.80;86.90;;;;;;5094459;28;20391;-14
2022/05/17 03:26:33;;;;;;;11.48;7.70;;;15.70;87.00;;;;;;5094324;28;20027;-15
2022/05/17 03:28:59;;;;;;;14.05;7.65;;;15.70;87.00;;;;;;5094762;28;20043;-14
2022/05/17 03:31:26;;;;;;;11.55;7.35;;;15.70;87.00;;;;;;5094565;28;20074;-14
2022/05/17 03:33:52;;;;;;;10.35;7.63;;;15.70;87.10;;;;;;5093948;28;20065;-14
2022/05/17 03:36:18;;;;;;;11.45;7.25;;;15.70;87.10;;;;;;5093876;28;20046;-12
2022/05/17 03:38:44;;;;;;;15.68;9.18;;;15.70;87.10;;;;;;5094101;28;20479;-15
2022/05/17 03:41:10;;;;;;;10.70;8.25;;;15.70;87.10;;;;;;5075906;28;20107;-13
2022/05/17 03:43:36;;;;;;;16.20;10.25;;;15.70;87.00;;;;;;5094384;28;20028;-14
2022/05/17 03:46:03;;;;;;;13.20;9.05;;;15.70;87.10;;;;;;5094242;28;20493;-13
2022/05/17 03:48:29;;;;;;;13.48;9.38;;;15.70;87.00;;;;;;5093730;28;20435;-13
2022/05/17 03:50:55;;;;;;;13.52;9.90;;;15.80;87.20;;;;;;5093763;28;20115;-13
2022/05/17 03:53:22;;;;;;;14.20;9.40;;;15.80;87.10;;;;;;5094166;28;20108;-13
2022/05/17 03:55:48;;;;;;;11.68;8.10;;;15.80;86.90;;;;;;5093966;28;20084;-14
2022/05/17 03:58:15;;;;;;;12.60;8.45;;;15.80;86.80;;;;;;5093561;28;20027;-16
2022/05/17 04:00:41;;;;;;;13.88;8.73;;;15.80;86.80;;;;;;5094207;28;20030;-13
2022/05/17 04:03:07;;;;;;;14.15;9.30;;;15.80;86.90;;;;;;5093790;28;20111;-14
2022/05/17 04:05:32;;;;;;;22.10;14.95;;;15.80;86.90;;;;;;5092904;28;20118;-14
2022/05/17 04:07:58;;;;;;;14.60;10.25;;;15.80;86.80;;;;;;5093635;28;20032;-15
2022/05/17 04:10:24;;;;;;;19.60;12.45;;;15.70;87.00;;;;;;5093602;28;20020;-12
2022/05/17 04:12:51;;;;;;;18.27;11.07;;;15.80;87.00;;;;;;5093527;28;20027;-13
2022/05/17 04:15:20;;;;;;;13.90;9.80;;;15.80;87.10;;;;;;5093472;28;20027;-13
2022/05/17 04:17:46;;;;;;;17.38;12.10;;;15.80;87.10;;;;;;5093480;28;20035;-12
2022/05/17 04:20:14;;;;;;;16.63;11.75;;;15.80;87.20;;;;;;5075445;28;20021;-12
2022/05/17 04:22:45;;;;;;;19.52;14.60;;;15.80;87.10;;;;;;5093387;28;20539;-13
2022/05/17 04:25:13;;;;;;;18.38;12.57;;;15.90;87.10;;;;;;5093666;28;20020;-15
2022/05/17 04:27:38;;;;;;;20.25;12.68;;;15.90;87.10;;;;;;5093394;28;20031;-14
2022/05/17 04:30:06;;;;;;;17.95;11.48;;;15.90;87.10;;;;;;5075178;28;20073;-13
2022/05/17 04:32:31;;;;;;;17.80;12.05;;;15.90;87.20;;;;;;5093307;28;20064;-12
2022/05/17 04:34:59;;;;;;;18.20;13.23;;;16.00;87.10;;;;;;5093134;28;20079;-15
2022/05/17 04:37:25;;;;;;;22.45;12.25;;;16.10;87.10;;;;;;5093218;28;20511;-15
2022/05/17 04:39:51;;;;;;;19.63;12.68;;;16.10;87.20;;;;;;5093427;28;20029;-14
2022/05/17 04:42:17;;;;;;;18.55;13.25;;;16.10;87.00;;;;;;5093061;28;20028;-15
2022/05/17 04:44:43;;;;;;;15.60;11.75;;;16.20;87.10;;;;;;5093595;28;20027;-14
2022/05/17 04:47:09;;;;;;;15.73;12.50;;;16.30;86.90;;;;;;5093114;28;20020;-14
2022/05/17 04:49:37;;;;;;;19.10;13.20;;;16.30;86.70;;;;;;5093073;28;20059;-13
2022/05/17 04:52:04;;;;;;;19.00;12.77;;;16.40;86.80;;;;;;5093016;28;20077;-14
2022/05/17 04:54:29;;;;;;;19.17;13.20;;;16.40;86.80;;;;;;5075045;28;20024;-15
2022/05/17 04:56:55;;;;;;;17.60;12.70;;;16.50;86.50;;;;;;5093496;28;20417;-16
2022/05/17 04:59:21;;;;;;;16.42;11.95;;;16.60;86.80;;;;;;5093291;28;20136;-15
2022/05/17 05:01:47;;;;;;;15.73;11.77;;;16.70;86.50;;;;;;5093312;28;20032;-15
2022/05/17 05:04:13;;;;;;;20.67;15.13;;;16.80;86.50;;;;;;5093196;28;20035;-14
2022/05/17 05:06:39;;;;;;;19.38;14.23;;;16.90;86.30;;;;;;5092941;28;20021;-14
2022/05/17 05:09:05;;;;;;;16.77;12.52;;;16.90;86.20;;;;;;5092866;28;20070;-16
2022/05/17 05:11:31;;;;;;;18.08;12.95;;;16.90;86.20;;;;;;5093148;28;20081;-14
2022/05/17 05:13:57;;;;;;;14.43;10.13;;;17.00;85.90;;;;;;5093153;28;20415;-16
2022/05/17 05:16:23;;;;;;;15.75;11.73;;;17.10;86.00;;;;;;5094860;28;20035;-16
2022/05/17 05:18:51;;;;;;;16.27;11.82;;;17.20;85.80;;;;;;5096784;28;20027;-15
2022/05/17 05:21:17;;;;;;;15.90;10.90;;;17.30;85.70;;;;;;5078550;28;20105;-15
2022/05/17 05:23:43;;;;;;;25.45;16.67;;;17.40;85.60;;;;;;5096668;28;20476;-15
2022/05/17 05:26:12;;;;;;;16.45;11.15;;;17.40;85.40;;;;;;5078715;28;20028;-14
2022/05/17 05:28:40;;;;;;;16.85;10.35;;;17.50;85.30;;;;;;5096688;28;20032;-13
2022/05/17 05:31:06;;;;;;;16.70;11.20;;;17.60;85.10;;;;;;5096842;28;20038;-15
2022/05/17 05:33:34;;;;;;;14.38;10.15;;;17.70;85.10;;;;;;5096538;28;20127;-14
2022/05/17 05:36:00;;;;;;;14.60;11.27;;;17.80;84.80;;;;;;5096466;28;20077;-15
2022/05/17 05:38:27;;;;;;;17.38;10.98;;;17.90;84.70;;;;;;5096594;28;20024;-14
2022/05/17 05:40:54;;;;;;;14.38;10.98;;;18.00;84.50;;;;;;5096433;28;20031;-14
2022/05/17 05:43:20;;;;;;;19.42;13.15;;;18.00;84.30;;;;;;5096587;28;20107;-14
2022/05/17 05:45:46;;;;;;;17.73;13.15;;;18.10;84.30;;;;;;5096621;28;20020;-13
2022/05/17 05:48:12;;;;;;;18.13;13.15;;;18.20;84.40;;;;;;5078261;28;20513;-16
2022/05/17 05:50:38;;;;;;;18.65;13.38;;;18.20;84.40;;;;;;5095925;28;20020;-16
2022/05/17 05:53:08;;;;;;;20.70;15.02;;;18.30;84.40;;;;;;5096687;28;20028;-15
2022/05/17 05:55:35;;;;;;;18.65;12.60;;;18.40;84.30;;;;;;5096326;28;20024;-13
2022/05/17 05:58:02;;;;;;;15.18;10.68;;;18.40;84.10;;;;;;5095993;28;20486;-15
2022/05/17 06:00:28;;;;;;;20.42;13.55;;;18.50;84.10;;;;;;5096138;28;20035;-13
2022/05/17 06:02:55;;;;;;;16.40;12.00;;;18.60;84.20;;;;;;5096920;28;20027;-14
2022/05/17 06:05:23;;;;;;;15.40;11.50;;;18.70;84.10;;;;;;5095930;28;20020;-15
2022/05/17 06:07:50;;;;;;;12.35;9.60;;;18.80;84.20;;;;;;5095923;28;20020;-14
2022/05/17 06:10:18;;;;;;;14.43;10.35;;;18.90;83.90;;;;;;5077552;28;20111;-14
2022/05/17 06:12:44;;;;;;;12.20;8.90;;;19.10;83.60;;;;;;5096493;28;20032;-14
2022/05/17 06:15:11;;;;;;;12.18;8.98;;;19.20;83.50;;;;;;5095903;28;20027;-14
2022/05/17 06:17:38;;;;;;;11.75;7.80;;;19.40;83.40;;;;;;5096378;28;20044;-14
2022/05/17 06:20:07;;;;;;;13.80;8.68;;;19.50;83.30;;;;;;5077449;28;20020;-13
2022/05/17 06:22:34;;;;;;;13.45;8.90;;;19.70;82.40;;;;;;5095713;28;20024;-13
2022/05/17 06:25:00;;;;;;;11.68;7.80;;;19.80;82.20;;;;;;5095586;28;20516;-11
2022/05/17 06:27:26;;;;;;;12.10;7.95;;;19.90;82.00;;;;;;5076751;28;20028;-10
2022/05/17 06:29:52;;;;;;;12.80;7.32;;;20.00;82.00;;;;;;5095462;28;20024;-11
2022/05/17 06:32:19;;;;;;;12.07;7.50;;;20.20;81.70;;;;;;5095103;28;20028;-13
2022/05/17 06:34:45;;;;;;;9.98;6.72;;;20.40;80.70;;;;;;5095071;28;20069;-11
2022/05/17 06:37:11;;;;;;;7.65;5.07;;;20.60;80.00;;;;;;5095304;28;20107;-13
2022/05/17 06:39:39;;;;;;;8.95;6.07;;;20.70;79.60;;;;;;5095600;28;20027;-13
2022/05/17 06:42:06;;;;;;;11.65;6.40;;;20.90;79.00;;;;;;5095372;28;20045;-14
2022/05/17 06:47:54;;;;;;;10.57;5.68;;;21.20;77.30;;;;;;5095490;28;20055;-13
2022/05/17 06:50:20;;;;;;;9.15;6.00;;;21.30;76.50;;;;;;5094895;28;20028;-15
2022/05/17 06:52:46;;;;;;;6.93;5.00;;;21.40;76.30;;;;;;5095265;28;20110;-13
2022/05/17 06:55:13;;;;;;;7.20;4.80;;;21.40;75.60;;;;;;5095531;28;20071;-13
2022/05/17 06:57:43;;;;;;;6.90;5.00;;;21.60;74.90;;;;;;5076975;28;20020;-13
2022/05/17 07:00:12;;;;;;;8.38;5.35;;;21.80;74.10;;;;;;5094846;28;20106;-14
2022/05/17 07:02:39;;;;;;;8.30;4.53;;;21.90;72.70;;;;;;5094902;28;20020;-15
2022/05/17 07:05:05;;;;;;;7.22;5.10;;;22.00;72.30;;;;;;5095037;28;20103;-13
2022/05/17 07:07:32;;;;;;;5.95;4.28;;;22.20;71.40;;;;;;5094708;28;20051;-13
2022/05/17 07:15:27;;;;;;;8.32;5.45;;;22.90;69.30;;;;;;5094741;28;20071;-15
2022/05/17 07:17:53;;;;;;;8.45;5.50;;;23.30;68.40;;;;;;5094694;28;20369;-14
2022/05/17 07:20:19;;;;;;;10.15;6.28;;;23.50;67.70;;;;;;5076085;28;20034;-13
2022/05/17 07:22:45;;;;;;;7.05;4.68;;;23.90;67.00;;;;;;5094961;28;20056;-13
2022/05/17 07:25:11;;;;;;;7.03;5.38;;;24.00;66.20;;;;;;5094617;28;20491;-13
2022/05/17 07:27:37;;;;;;;7.05;4.72;;;24.20;64.90;;;;;;5094724;28;20050;-15
2022/05/17 07:30:05;;;;;;;7.32;5.22;;;24.30;64.80;;;;;;5094390;28;20039;-13
2022/05/17 07:32:31;;;;;;;9.70;5.70;;;24.40;64.80;;;;;;5093889;28;20395;-13
2022/05/17 07:34:56;;;;;;;9.55;5.30;;;24.60;64.10;;;;;;5094045;28;20044;-14
2022/05/17 07:37:22;;;;;;;6.32;4.75;;;24.70;63.80;;;;;;5094220;28;20024;-13
2022/05/17 07:39:48;;;;;;;7.13;4.93;;;24.70;63.80;;;;;;5094231;28;20157;-13
2022/05/17 07:42:15;;;;;;;6.50;4.95;;;24.80;63.90;;;;;;5094107;28;20509;-14
2022/05/17 07:44:41;;;;;;;8.25;5.18;;;24.90;63.10;;;;;;5094581;28;20055;-14
2022/05/17 07:47:07;;;;;;;9.65;6.05;;;25.20;62.50;;;;;;5094256;28;20031;-14
2022/05/17 07:49:34;;;;;;;7.25;4.60;;;25.40;61.70;;;;;;5093810;28;20024;-14
2022/05/17 07:52:02;;;;;;;6.78;4.65;;;25.50;61.20;;;;;;5093837;28;20043;-13
2022/05/17 07:54:29;;;;;;;11.05;5.88;;;25.80;60.50;;;;;;5093903;28;20521;-13
2022/05/17 07:56:55;;;;;;;9.38;5.88;;;26.00;57.30;;;;;;5093774;28;20024;-13
2022/05/17 07:59:21;;;;;;;9.80;5.72;;;26.30;57.70;;;;;;5093829;28;20024;-13
2022/05/17 08:01:46;;;;;;;15.38;11.10;;;26.60;56.90;;;;;;5094084;28;20084;-13
2022/05/17 08:04:12;;;;;;;8.23;5.95;;;26.80;56.60;;;;;;5093679;28;20509;-13
2022/05/17 08:06:39;;;;;;;10.15;7.07;;;26.90;56.40;;;;;;5093822;28;20066;-13
2022/05/17 08:09:05;;;;;;;8.88;5.55;;;26.90;56.00;;;;;;5093590;28;20047;-13
2022/05/17 08:11:32;;;;;;;8.27;5.82;;;27.00;56.20;;;;;;5093692;28;20020;-15
2022/05/17 08:13:58;;;;;;;7.88;5.40;;;27.10;56.30;;;;;;5093827;28;20031;-15
2022/05/17 08:16:24;;;;;;;10.20;5.68;;;27.40;56.00;;;;;;5093564;28;20024;-14
2022/05/17 08:18:50;;;;;;;10.48;7.70;;;27.80;54.70;;;;;;5094129;28;20028;-12
2022/05/17 08:21:16;;;;;;;13.40;7.97;;;28.10;53.60;;;;;;5093370;28;20116;-13
2022/05/17 08:23:43;;;;;;;10.45;6.85;;;28.10;52.80;;;;;;5093676;28;20020;-13
2022/05/17 08:28:55;;;;;;;7.25;5.78;;;27.90;54.20;;;;;;5093974;28;20039;-13
2022/05/17 08:31:21;;;;;;;6.38;5.30;;;28.20;53.50;;;;;;5093496;28;20086;-13
2022/05/17 08:33:49;;;;;;;8.18;5.68;;;28.40;53.50;;;;;;5093183;28;20126;-13
2022/05/17 08:36:15;;;;;;;9.43;5.85;;;28.60;51.90;;;;;;5092993;28;20105;-14
2022/05/17 08:38:44;;;;;;;9.63;6.38;;;28.80;52.00;;;;;;5093192;28;20062;-14
2022/05/17 08:41:19;;;;;;;9.07;5.85;;;28.90;51.70;;;;;;5075073;28;20483;-13
2022/05/17 08:43:51;;;;;;;10.32;6.75;;;28.70;51.80;;;;;;5093447;28;20114;-13
2022/05/17 08:46:28;;;;;;;6.63;5.18;;;28.40;52.10;;;;;;5093218;28;20032;-13
2022/05/17 08:49:07;;;;;;;8.73;5.70;;;28.30;53.00;;;;;;5093137;28;20024;-13
2022/05/17 08:52:00;;;;;;;7.80;5.88;;;28.30;53.10;;;;;;5095596;28;20036;-13
2022/05/17 08:54:30;;;;;;;9.73;6.68;;;28.40;51.90;;;;;;5097186;28;20035;-13
2022/05/17 08:57:22;;;;;;;7.25;5.45;;;28.70;51.70;;;;;;5097557;28;20024;-13
2022/05/17 08:59:49;;;;;;;8.70;6.05;;;28.90;51.10;;;;;;5097251;28;20024;-14
2022/05/17 09:02:20;;;;;;;11.90;7.50;;;29.30;50.70;;;;;;5097482;28;20035;-14
2022/05/17 09:05:04;;;;;;;9.43;7.53;;;29.60;48.90;;;;;;5097733;28;20122;-14
2022/05/17 09:07:38;;;;;;;;;;;29.70;48.50;;;;;;5097844;28;20024;-13
2022/05/17 09:10:27;;;;;;;10.63;6.03;;;29.40;48.40;;;;;;5097664;28;20309;-13
2022/05/17 09:13:00;;;;;;;9.82;6.60;;;29.20;50.00;;;;;;5097252;28;20036;-13
2022/05/17 09:15:27;;;;;;;9.93;7.45;;;29.20;50.60;;;;;;5097131;28;20086;-13
2022/05/17 09:17:53;;;;;;;8.38;6.10;;;29.50;50.20;;;;;;5097179;28;20032;-14
2022/05/17 09:20:26;;;;;;;10.07;6.18;;;29.70;50.00;;;;;;5096591;28;20027;-14
2022/05/17 09:22:52;;;;;;;11.23;6.70;;;29.90;48.60;;;;;;5097775;28;20054;-14
2022/05/17 09:25:25;;;;;;;9.68;6.82;;;30.20;47.30;;;;;;5096765;28;20028;-14
2022/05/17 09:27:52;;;;;;;;;;;30.40;47.70;;;;;;5097481;28;20032;-14
2022/05/17 09:30:23;;;;;;;10.82;6.80;;;30.40;47.80;;;;;;5096732;28;20380;-13
2022/05/17 09:33:01;;;;;;;9.45;6.63;;;30.60;47.10;;;;;;5096500;28;20043;-13
2022/05/17 09:35:28;;;;;;;11.05;7.80;;;30.80;47.80;;;;;;5096453;28;20044;-13
2022/05/17 09:37:58;;;;;;;9.43;6.60;;;30.90;47.50;;;;;;5096634;28;20027;-14
2022/05/17 09:40:28;;;;;;;10.43;7.07;;;31.20;47.50;;;;;;5096532;28;20072;-15
2022/05/17 09:42:56;;;;;;;10.32;7.38;;;31.30;46.90;;;;;;5096700;28;20016;-15
2022/05/17 09:46:00;;;;;;;11.98;8.68;;;31.40;45.40;;;;;;5096682;28;20032;-13
2022/05/17 09:54:39;;;;;;;9.55;6.93;;;31.70;45.70;;;;;;5096390;28;20066;-13
2022/05/17 09:57:25;;;;;;;11.57;8.38;;;31.90;45.50;;;;;;5096289;28;20056;-13
2022/05/17 09:59:55;;;;;;;11.77;6.85;;;32.00;44.10;;;;;;5096125;28;20082;-15
2022/05/17 10:02:32;;;;;;;10.98;8.52;;;32.10;45.00;;;;;;5095771;28;20027;-14
2022/05/17 10:05:09;;;;;;;12.68;8.48;;;32.10;45.00;;;;;;5095978;28;20020;-14
2022/05/17 10:07:36;;;;;;;14.40;9.52;;;32.20;44.60;;;;;;5096385;28;20102;-14
2022/05/17 10:10:21;;;;;;;12.10;8.82;;;32.10;44.40;;;;;;5096180;28;20025;-13
2022/05/17 10:12:51;;;;;;;14.75;9.85;;;31.90;44.70;;;;;;5096505;28;20030;-13
2022/05/17 10:15:19;;;;;;;12.93;8.25;;;31.90;45.00;;;;;;5095805;28;20027;-13
2022/05/17 10:17:56;;;;;;;14.15;10.27;;;31.90;45.30;;;;;;5096117;28;20024;-13
2022/05/17 10:20:30;;;;;;;11.15;9.02;;;31.80;44.90;;;;;;5095405;28;20541;-14
2022/05/17 10:23:15;;;;;;;11.88;7.57;;;31.80;45.80;;;;;;5095992;28;20056;-13
2022/05/17 10:25:47;;;;;;;12.15;8.55;;;31.90;45.90;;;;;;5095920;28;20161;-13
2022/05/17 10:28:26;;;;;;;10.20;6.68;;;31.90;44.70;;;;;;5095752;28;20021;-13
2022/05/17 10:30:59;;;;;;;11.10;7.90;;;31.60;45.90;;;;;;5095665;28;20450;-13
2022/05/17 10:33:49;;;;;;;13.38;9.02;;;31.60;44.90;;;;;;5095623;28;20021;-14
2022/05/17 10:36:34;;;;;;;8.88;7.10;;;31.70;44.70;;;;;;5095416;28;20385;-13
2022/05/17 10:39:35;;;;;;;9.35;5.93;;;31.50;45.10;;;;;;5095737;28;20028;-13
2022/05/17 10:42:01;;;;;;;12.80;8.73;;;31.60;45.40;;;;;;5084480;28;20033;-13
2022/05/17 10:44:47;;;;;;;8.43;6.43;;;32.10;43.90;;;;;;5095265;28;20028;-14
2022/05/17 10:47:39;;;;;;;12.43;8.07;;;32.30;43.70;;;;;;5095536;28;20016;-13
2022/05/17 10:50:27;;;;;;;10.30;6.93;;;32.50;43.00;;;;;;5094314;28;20112;-14
2022/05/17 10:53:18;;;;;;;10.90;6.60;;;32.70;43.30;;;;;;5095099;28;20040;-15
2022/05/17 10:55:51;;;;;;;9.88;7.10;;;33.20;42.50;;;;;;5095098;28;20040;-14
2022/05/17 10:58:17;;;;;;;;;;;33.60;41.30;;;;;;5095540;28;20066;-14
2022/05/17 11:01:06;;;;;;;12.35;8.13;;;33.90;41.10;;;;;;5076824;28;19904;-14
2022/05/17 11:03:56;;;;;;;10.35;7.10;;;34.30;40.60;;;;;;5080553;28;20048;-14
2022/05/17 11:06:43;;;;;;;9.80;6.78;;;34.50;39.90;;;;;;5094637;28;20425;-14
2022/05/17 11:09:33;;;;;;;9.43;6.53;;;34.70;39.90;;;;;;5094900;28;20028;-14
2022/05/17 11:12:09;;;;;;;8.45;5.78;;;35.00;39.10;;;;;;5094701;28;20119;-15
2022/05/17 11:14:57;;;;;;;10.10;6.93;;;35.40;39.40;;;;;;5094084;28;20028;-14
2022/05/17 11:17:27;;;;;;;9.15;6.60;;;35.70;37.60;;;;;;5094680;28;20498;-14
2022/05/17 11:20:04;;;;;;;10.57;6.78;;;35.90;37.40;;;;;;5094463;28;20032;-14
2022/05/17 11:22:39;;;;;;;11.75;7.70;;;36.10;37.20;;;;;;5094341;28;20024;-14
2022/05/17 11:25:21;;;;;;;9.00;5.93;;;36.30;37.30;;;;;;5094884;28;20026;-14
2022/05/17 11:28:33;;;;;;;10.48;6.72;;;36.50;37.70;;;;;;5094800;28;20199;-14
2022/05/17 11:31:27;;;;;;;10.25;6.60;;;36.70;37.10;;;;;;5049687;28;20032;-14
2022/05/17 11:34:22;;;;;;;10.10;6.97;;;37.00;36.20;;;;;;5056133;28;20071;-14
2022/05/17 11:36:49;;;;;;;8.15;6.50;;;37.20;35.90;;;;;;5094058;28;20034;-16
2022/05/17 11:39:40;;;;;;;6.75;4.90;;;37.30;35.80;;;;;;5094454;28;20498;-16
2022/05/17 11:42:32;;;;;;;5.75;4.85;;;37.50;35.40;;;;;;5094271;28;20403;-13
2022/05/17 11:45:40;;;;;;;6.97;4.50;;;37.90;35.60;;;;;;5094466;28;20108;-14
2022/05/17 11:48:15;;;;;;;7.45;4.97;;;38.20;35.00;;;;;;5094319;28;20032;-14
2022/05/17 11:51:03;;;;;;;8.52;5.00;;;38.50;34.30;;;;;;5094383;28;20031;-16
2022/05/17 11:53:34;;;;;;;6.80;4.72;;;38.70;34.40;;;;;;5093499;28;20028;-15
2022/05/17 11:56:20;;;;;;;6.60;5.05;;;39.00;34.50;;;;;;5094161;28;20567;-13
2022/05/17 11:58:50;;;;;;;7.78;6.00;;;39.20;33.90;;;;;;5094132;28;20486;-13
2022/05/17 12:01:31;;;;;;;8.50;5.72;;;38.90;33.50;;;;;;5094105;28;20115;-13
2022/05/17 12:04:06;;;;;;;8.60;4.97;;;38.00;33.60;;;;;;5093996;28;20043;-13
2022/05/17 12:06:41;;;;;;;8.65;5.70;;;37.70;35.20;;;;;;5093700;28;20024;-13
2022/05/17 12:09:13;;;;;;;7.60;5.00;;;37.90;34.60;;;;;;5093967;28;20111;-13
2022/05/17 12:11:45;;;;;;;9.05;5.50;;;37.90;34.00;;;;;;5093861;28;20036;-14
2022/05/17 12:14:34;;;;;;;7.80;5.05;;;38.10;33.70;;;;;;5093641;28;20390;-14
2022/05/17 12:17:04;;;;;;;6.60;4.20;;;38.20;34.10;;;;;;5093573;28;20479;-14
2022/05/17 12:19:50;;;;;;;7.30;4.38;;;38.30;34.60;;;;;;5093763;28;20024;-14
2022/05/17 12:22:33;;;;;;;6.93;4.40;;;38.60;33.90;;;;;;5093293;28;20123;-14
2022/05/17 12:25:16;;;;;;;8.55;5.30;;;38.90;33.30;;;;;;5093060;28;20047;-14
2022/05/17 12:27:45;;;;;;;7.95;4.65;;;39.20;32.10;;;;;;5093760;28;20107;-14
2022/05/17 12:33:19;;;;;;;6.18;4.10;;;38.50;33.30;;;;;;5093509;28;20092;-17
2022/05/17 12:35:47;;;;;;;6.20;3.80;;;38.50;32.20;;;;;;5093530;28;20028;-14
2022/05/17 12:44:12;;;;;;;8.13;5.38;;;39.30;32.70;;;;;;5093972;28;20429;-14
2022/05/17 12:46:39;;;;;;;8.38;5.10;;;39.50;32.00;;;;;;5092951;28;20063;-13
2022/05/17 12:49:30;;;;;;;9.95;5.80;;;39.30;33.40;;;;;;5093393;28;20559;-14
2022/05/17 12:52:10;;;;;;;8.80;6.03;;;39.30;32.40;;;;;;5093140;28;20028;-14
2022/05/17 12:54:38;;;;;;;5.93;4.53;;;39.40;32.60;;;;;;5092915;28;20391;-14
2022/05/17 12:57:20;;;;;;;7.80;4.68;;;39.30;34.00;;;;;;5093306;28;20069;-14
2022/05/17 12:59:46;;;;;;;5.47;4.47;;;39.40;32.30;;;;;;5093660;28;20484;-13
2022/05/17 13:02:21;;;;;;;5.75;3.90;;;39.40;33.60;;;;;;5093028;28;20413;-14
2022/05/17 13:04:47;;;;;;;6.15;4.70;;;39.60;33.50;;;;;;5093384;28;20016;-13
2022/05/17 13:07:20;;;;;;;8.23;4.63;;;39.80;32.70;;;;;;5093211;28;20028;-15
2022/05/17 13:10:04;;;;;;;6.93;4.47;;;39.80;32.30;;;;;;5093194;28;20024;-14
2022/05/17 13:12:36;;;;;;;7.65;4.90;;;39.90;31.80;;;;;;5092610;28;20032;-14
2022/05/17 13:15:09;;;;;;;6.75;4.40;;;39.90;32.10;;;;;;5093301;28;20020;-14
2022/05/17 13:17:39;;;;;;;6.40;4.43;;;40.00;32.20;;;;;;5092917;28;20024;-14
2022/05/17 13:20:20;;;;;;;10.05;4.53;;;39.90;32.00;;;;;;5092757;28;20028;-14
2022/05/17 13:22:54;;;;;;;7.38;4.90;;;39.80;31.30;;;;;;5093437;28;20055;-14
2022/05/17 13:25:42;;;;;;;7.20;4.85;;;39.50;31.60;;;;;;5092949;28;20070;-14